Terminal Aerodrome Forecast
Issued by NWS

Home | Current Version | Previous Version | Text Only | Print | Product List | Glossary On
Versions: 1 2 3 4 5 6 7 8 9 10 11 12 13 14 15 16 17 18 19 20 21 22 23 24 25 26 27 28 29 30 31 32 33 34 35 36
000
FTUS41 KGYX 262102 AAA
TAFMHT
TAF AMD
KMHT 262102Z 2621/2718 03010KT P6SM -SN BKN025 OVC040
      TEMPO 2621/2701 3SM -SN SCT007 BKN015 OVC025
     FM270100 02012G20KT 2SM -SN BKN007 OVC012
     FM270500 01016G25KT 1/2SM SN OVC007=

USA.gov is the U.S. government's official web portal to all federal, state and local government web resources and services.